sensor_id;sensor_type;location;lat;lon;timestamp;P1;durP1;ratioP1;P2;durP2;ratioP2
51146;SDS011;37207;53.060;18.726;2023-01-31T00:01:25;16.60;;;4.80;;
51146;SDS011;37207;53.060;18.726;2023-01-31T00:03:57;14.10;;;4.70;;
51146;SDS011;37207;53.060;18.726;2023-01-31T00:06:27;9.80;;;1.90;;
51146;SDS011;37207;53.060;18.726;2023-01-31T00:08:56;12.60;;;2.10;;
51146;SDS011;37207;53.060;18.726;2023-01-31T00:11:25;4.80;;;2.10;;
51146;SDS011;37207;53.060;18.726;2023-01-31T00:13:53;12.40;;;2.10;;
51146;SDS011;37207;53.060;18.726;2023-01-31T00:16:20;13.30;;;4.60;;
51146;SDS011;37207;53.060;18.726;2023-01-31T00:18:48;11.90;;;5.00;;
51146;SDS011;37207;53.060;18.726;2023-01-31T00:21:20;18.60;;;5.10;;
51146;SDS011;37207;53.060;18.726;2023-01-31T00:23:50;21.20;;;4.90;;
51146;SDS011;37207;53.060;18.726;2023-01-31T00:26:19;8.00;;;2.20;;
51146;SDS011;37207;53.060;18.726;2023-01-31T00:28:51;15.20;;;5.10;;
51146;SDS011;37207;53.060;18.726;2023-01-31T00:31:20;10.70;;;3.10;;
51146;SDS011;37207;53.060;18.726;2023-01-31T00:36:17;13.00;;;3.10;;
51146;SDS011;37207;53.060;18.726;2023-01-31T00:38:53;8.50;;;2.40;;
51146;SDS011;37207;53.060;18.726;2023-01-31T00:41:22;15.40;;;2.40;;
51146;SDS011;37207;53.060;18.726;2023-01-31T00:46:17;8.90;;;2.70;;
51146;SDS011;37207;53.060;18.726;2023-01-31T00:48:47;9.40;;;2.40;;
51146;SDS011;37207;53.060;18.726;2023-01-31T00:51:15;22.30;;;5.90;;
51146;SDS011;37207;53.060;18.726;2023-01-31T00:53:42;12.00;;;1.90;;
51146;SDS011;37207;53.060;18.726;2023-01-31T00:56:16;19.80;;;2.50;;
51146;SDS011;37207;53.060;18.726;2023-01-31T00:58:44;15.20;;;5.20;;
51146;SDS011;37207;53.060;18.726;2023-01-31T01:01:13;14.60;;;2.10;;
51146;SDS011;37207;53.060;18.726;2023-01-31T01:03:51;10.40;;;2.50;;
51146;SDS011;37207;53.060;18.726;2023-01-31T01:06:19;92.40;;;27.10;;
51146;SDS011;37207;53.060;18.726;2023-01-31T01:08:46;31.70;;;10.10;;
51146;SDS011;37207;53.060;18.726;2023-01-31T01:11:15;62.00;;;21.10;;
51146;SDS011;37207;53.060;18.726;2023-01-31T01:13:47;50.50;;;17.10;;
51146;SDS011;37207;53.060;18.726;2023-01-31T01:16:18;39.60;;;13.70;;
51146;SDS011;37207;53.060;18.726;2023-01-31T01:18:46;16.00;;;5.00;;
51146;SDS011;37207;53.060;18.726;2023-01-31T01:21:15;14.60;;;2.80;;
51146;SDS011;37207;53.060;18.726;2023-01-31T01:23:50;20.20;;;6.20;;
51146;SDS011;37207;53.060;18.726;2023-01-31T01:28:52;11.60;;;2.90;;
51146;SDS011;37207;53.060;18.726;2023-01-31T01:31:19;27.70;;;7.60;;
51146;SDS011;37207;53.060;18.726;2023-01-31T01:33:47;19.30;;;5.80;;
51146;SDS011;37207;53.060;18.726;2023-01-31T01:36:15;15.10;;;3.00;;
51146;SDS011;37207;53.060;18.726;2023-01-31T01:38:47;7.80;;;2.40;;
51146;SDS011;37207;53.060;18.726;2023-01-31T01:41:14;7.40;;;2.20;;
51146;SDS011;37207;53.060;18.726;2023-01-31T01:46:13;19.90;;;5.30;;
51146;SDS011;37207;53.060;18.726;2023-01-31T01:48:44;17.00;;;5.90;;
51146;SDS011;37207;53.060;18.726;2023-01-31T01:51:15;11.80;;;2.00;;
51146;SDS011;37207;53.060;18.726;2023-01-31T01:56:14;15.50;;;3.10;;
51146;SDS011;37207;53.060;18.726;2023-01-31T01:59:46;24.80;;;5.90;;
51146;SDS011;37207;53.060;18.726;2023-01-31T02:01:43;19.30;;;2.40;;
51146;SDS011;37207;53.060;18.726;2023-01-31T02:04:14;20.90;;;3.40;;
51146;SDS011;37207;53.060;18.726;2023-01-31T02:06:45;15.30;;;2.60;;
51146;SDS011;37207;53.060;18.726;2023-01-31T02:09:19;19.30;;;2.90;;
51146;SDS011;37207;53.060;18.726;2023-01-31T02:11:55;33.20;;;5.80;;
51146;SDS011;37207;53.060;18.726;2023-01-31T02:14:22;22.80;;;6.00;;
51146;SDS011;37207;53.060;18.726;2023-01-31T02:16:48;13.90;;;2.10;;
51146;SDS011;37207;53.060;18.726;2023-01-31T02:19:18;10.80;;;2.70;;
51146;SDS011;37207;53.060;18.726;2023-01-31T02:24:54;14.60;;;2.40;;
51146;SDS011;37207;53.060;18.726;2023-01-31T02:41:35;16.40;;;2.70;;
51146;SDS011;37207;53.060;18.726;2023-01-31T02:44:06;29.10;;;5.70;;
51146;SDS011;37207;53.060;18.726;2023-01-31T02:52:51;20.80;;;3.10;;
51146;SDS011;37207;53.060;18.726;2023-01-31T02:55:16;14.10;;;2.10;;
51146;SDS011;37207;53.060;18.726;2023-01-31T02:58:07;20.00;;;2.10;;
51146;SDS011;37207;53.060;18.726;2023-01-31T03:00:37;19.60;;;5.50;;
51146;SDS011;37207;53.060;18.726;2023-01-31T03:03:07;24.10;;;6.30;;
51146;SDS011;37207;53.060;18.726;2023-01-31T03:05:43;17.60;;;5.10;;
51146;SDS011;37207;53.060;18.726;2023-01-31T03:08:10;13.70;;;2.10;;
51146;SDS011;37207;53.060;18.726;2023-01-31T03:10:59;11.30;;;1.80;;
51146;SDS011;37207;53.060;18.726;2023-01-31T03:19:26;9.30;;;1.70;;
51146;SDS011;37207;53.060;18.726;2023-01-31T03:22:10;13.10;;;2.20;;
51146;SDS011;37207;53.060;18.726;2023-01-31T03:24:43;8.20;;;1.50;;
51146;SDS011;37207;53.060;18.726;2023-01-31T03:27:14;6.50;;;1.50;;
51146;SDS011;37207;53.060;18.726;2023-01-31T03:29:41;18.70;;;5.50;;
51146;SDS011;37207;53.060;18.726;2023-01-31T03:34:50;4.50;;;1.50;;
51146;SDS011;37207;53.060;18.726;2023-01-31T03:40:29;10.40;;;1.40;;
51146;SDS011;37207;53.060;18.726;2023-01-31T03:43:09;20.20;;;2.90;;
51146;SDS011;37207;53.060;18.726;2023-01-31T03:48:42;6.30;;;2.00;;
51146;SDS011;37207;53.060;18.726;2023-01-31T03:51:16;17.70;;;2.30;;
51146;SDS011;37207;53.060;18.726;2023-01-31T03:54:00;15.40;;;4.20;;
51146;SDS011;37207;53.060;18.726;2023-01-31T03:56:37;22.30;;;5.00;;
51146;SDS011;37207;53.060;18.726;2023-01-31T03:59:13;6.80;;;1.20;;
51146;SDS011;37207;53.060;18.726;2023-01-31T04:01:45;6.40;;;1.70;;
51146;SDS011;37207;53.060;18.726;2023-01-31T04:04:20;11.50;;;1.80;;
51146;SDS011;37207;53.060;18.726;2023-01-31T04:06:52;8.20;;;1.70;;
51146;SDS011;37207;53.060;18.726;2023-01-31T04:09:19;8.50;;;2.30;;
51146;SDS011;37207;53.060;18.726;2023-01-31T04:11:46;13.10;;;4.30;;
51146;SDS011;37207;53.060;18.726;2023-01-31T04:14:15;21.60;;;4.60;;
51146;SDS011;37207;53.060;18.726;2023-01-31T04:16:43;11.50;;;1.90;;
51146;SDS011;37207;53.060;18.726;2023-01-31T04:19:09;15.50;;;4.50;;
51146;SDS011;37207;53.060;18.726;2023-01-31T04:21:37;4.60;;;1.00;;
51146;SDS011;37207;53.060;18.726;2023-01-31T04:24:03;9.80;;;1.80;;
51146;SDS011;37207;53.060;18.726;2023-01-31T04:26:30;24.20;;;5.90;;
51146;SDS011;37207;53.060;18.726;2023-01-31T04:28:57;21.60;;;5.60;;
51146;SDS011;37207;53.060;18.726;2023-01-31T04:31:23;16.10;;;3.00;;
51146;SDS011;37207;53.060;18.726;2023-01-31T04:33:50;11.20;;;1.80;;
51146;SDS011;37207;53.060;18.726;2023-01-31T04:36:16;17.80;;;4.10;;
51146;SDS011;37207;53.060;18.726;2023-01-31T04:38:43;14.20;;;4.20;;
51146;SDS011;37207;53.060;18.726;2023-01-31T04:41:09;10.90;;;4.00;;
51146;SDS011;37207;53.060;18.726;2023-01-31T04:43:36;6.60;;;1.50;;
51146;SDS011;37207;53.060;18.726;2023-01-31T04:46:03;15.00;;;4.80;;
51146;SDS011;37207;53.060;18.726;2023-01-31T04:48:29;13.90;;;4.20;;
51146;SDS011;37207;53.060;18.726;2023-01-31T04:50:56;14.00;;;4.10;;
51146;SDS011;37207;53.060;18.726;2023-01-31T04:53:22;15.20;;;4.60;;
51146;SDS011;37207;53.060;18.726;2023-01-31T04:55:52;4.90;;;1.80;;
51146;SDS011;37207;53.060;18.726;2023-01-31T04:58:20;4.90;;;0.80;;
51146;SDS011;37207;53.060;18.726;2023-01-31T05:00:47;11.50;;;1.90;;
51146;SDS011;37207;53.060;18.726;2023-01-31T05:03:13;14.40;;;5.30;;
51146;SDS011;37207;53.060;18.726;2023-01-31T05:05:40;8.00;;;1.40;;
51146;SDS011;37207;53.060;18.726;2023-01-31T05:08:06;10.40;;;1.80;;
51146;SDS011;37207;53.060;18.726;2023-01-31T05:10:33;21.90;;;5.50;;
51146;SDS011;37207;53.060;18.726;2023-01-31T05:13:01;20.40;;;5.50;;
51146;SDS011;37207;53.060;18.726;2023-01-31T05:15:27;17.40;;;4.80;;
51146;SDS011;37207;53.060;18.726;2023-01-31T05:17:54;7.20;;;2.30;;
51146;SDS011;37207;53.060;18.726;2023-01-31T05:20:29;7.40;;;2.10;;
51146;SDS011;37207;53.060;18.726;2023-01-31T05:25:24;10.80;;;1.80;;
51146;SDS011;37207;53.060;18.726;2023-01-31T05:27:51;9.70;;;1.90;;
51146;SDS011;37207;53.060;18.726;2023-01-31T05:30:18;5.20;;;1.80;;
51146;SDS011;37207;53.060;18.726;2023-01-31T05:32:45;10.70;;;2.00;;
51146;SDS011;37207;53.060;18.726;2023-01-31T05:35:12;13.30;;;2.80;;
51146;SDS011;37207;53.060;18.726;2023-01-31T05:37:39;5.40;;;1.70;;
51146;SDS011;37207;53.060;18.726;2023-01-31T05:40:12;11.20;;;2.70;;
51146;SDS011;37207;53.060;18.726;2023-01-31T05:42:42;19.30;;;3.00;;
51146;SDS011;37207;53.060;18.726;2023-01-31T05:45:09;19.50;;;5.40;;
51146;SDS011;37207;53.060;18.726;2023-01-31T05:47:36;17.90;;;5.70;;
51146;SDS011;37207;53.060;18.726;2023-01-31T05:50:03;9.40;;;1.30;;
51146;SDS011;37207;53.060;18.726;2023-01-31T05:52:30;10.30;;;2.20;;
51146;SDS011;37207;53.060;18.726;2023-01-31T05:54:57;8.00;;;1.70;;
51146;SDS011;37207;53.060;18.726;2023-01-31T05:57:23;21.60;;;5.60;;
51146;SDS011;37207;53.060;18.726;2023-01-31T05:59:50;18.40;;;2.80;;
51146;SDS011;37207;53.060;18.726;2023-01-31T06:02:16;11.20;;;1.90;;
51146;SDS011;37207;53.060;18.726;2023-01-31T06:04:43;10.50;;;5.10;;
51146;SDS011;37207;53.060;18.726;2023-01-31T06:07:09;7.00;;;2.10;;
51146;SDS011;37207;53.060;18.726;2023-01-31T06:09:37;12.70;;;2.40;;
51146;SDS011;37207;53.060;18.726;2023-01-31T06:12:05;28.20;;;10.80;;
51146;SDS011;37207;53.060;18.726;2023-01-31T06:14:35;16.10;;;4.30;;
51146;SDS011;37207;53.060;18.726;2023-01-31T06:17:02;8.20;;;2.50;;
51146;SDS011;37207;53.060;18.726;2023-01-31T06:19:29;15.70;;;3.80;;
51146;SDS011;37207;53.060;18.726;2023-01-31T06:21:55;12.40;;;3.50;;
51146;SDS011;37207;53.060;18.726;2023-01-31T06:24:22;17.00;;;4.30;;
51146;SDS011;37207;53.060;18.726;2023-01-31T06:26:48;16.60;;;6.00;;
51146;SDS011;37207;53.060;18.726;2023-01-31T06:29:15;75.90;;;22.90;;
51146;SDS011;37207;53.060;18.726;2023-01-31T06:31:42;32.10;;;7.70;;
51146;SDS011;37207;53.060;18.726;2023-01-31T06:34:10;61.30;;;12.00;;
51146;SDS011;37207;53.060;18.726;2023-01-31T06:36:37;23.90;;;4.90;;
51146;SDS011;37207;53.060;18.726;2023-01-31T06:39:03;66.30;;;11.60;;
51146;SDS011;37207;53.060;18.726;2023-01-31T06:41:30;10.80;;;3.30;;
51146;SDS011;37207;53.060;18.726;2023-01-31T06:43:57;15.20;;;3.90;;
51146;SDS011;37207;53.060;18.726;2023-01-31T06:46:23;21.40;;;4.80;;
51146;SDS011;37207;53.060;18.726;2023-01-31T06:48:50;13.70;;;2.70;;
51146;SDS011;37207;53.060;18.726;2023-01-31T06:51:16;8.00;;;2.50;;
51146;SDS011;37207;53.060;18.726;2023-01-31T06:53:43;3.70;;;1.60;;
51146;SDS011;37207;53.060;18.726;2023-01-31T06:56:10;9.10;;;1.90;;
51146;SDS011;37207;53.060;18.726;2023-01-31T06:58:36;16.40;;;2.80;;
51146;SDS011;37207;53.060;18.726;2023-01-31T07:01:04;7.00;;;1.90;;
51146;SDS011;37207;53.060;18.726;2023-01-31T07:03:31;8.80;;;2.20;;
51146;SDS011;37207;53.060;18.726;2023-01-31T07:05:58;14.80;;;5.50;;
51146;SDS011;37207;53.060;18.726;2023-01-31T07:08:25;14.20;;;4.70;;
51146;SDS011;37207;53.060;18.726;2023-01-31T07:10:51;10.80;;;1.80;;
51146;SDS011;37207;53.060;18.726;2023-01-31T07:13:18;14.10;;;2.70;;
51146;SDS011;37207;53.060;18.726;2023-01-31T07:15:47;13.30;;;2.70;;
51146;SDS011;37207;53.060;18.726;2023-01-31T07:18:14;13.40;;;4.00;;
51146;SDS011;37207;53.060;18.726;2023-01-31T07:20:41;29.00;;;13.50;;
51146;SDS011;37207;53.060;18.726;2023-01-31T07:23:08;34.00;;;18.20;;
51146;SDS011;37207;53.060;18.726;2023-01-31T07:25:35;30.90;;;20.40;;
51146;SDS011;37207;53.060;18.726;2023-01-31T07:28:01;21.80;;;9.80;;
51146;SDS011;37207;53.060;18.726;2023-01-31T07:30:29;21.00;;;7.20;;
51146;SDS011;37207;53.060;18.726;2023-01-31T07:32:55;37.20;;;16.50;;
51146;SDS011;37207;53.060;18.726;2023-01-31T07:35:22;20.70;;;9.50;;
51146;SDS011;37207;53.060;18.726;2023-01-31T07:37:52;20.10;;;7.70;;
51146;SDS011;37207;53.060;18.726;2023-01-31T07:40:19;20.30;;;8.60;;
51146;SDS011;37207;53.060;18.726;2023-01-31T07:42:46;16.50;;;9.10;;
51146;SDS011;37207;53.060;18.726;2023-01-31T07:45:13;14.60;;;6.80;;
51146;SDS011;37207;53.060;18.726;2023-01-31T07:47:41;11.60;;;2.60;;
51146;SDS011;37207;53.060;18.726;2023-01-31T07:50:08;18.20;;;7.90;;
51146;SDS011;37207;53.060;18.726;2023-01-31T07:52:36;25.00;;;9.40;;
51146;SDS011;37207;53.060;18.726;2023-01-31T07:55:02;33.20;;;18.70;;
51146;SDS011;37207;53.060;18.726;2023-01-31T07:57:30;25.00;;;12.90;;
51146;SDS011;37207;53.060;18.726;2023-01-31T07:59:57;25.10;;;9.80;;
51146;SDS011;37207;53.060;18.726;2023-01-31T08:02:23;33.60;;;16.90;;
51146;SDS011;37207;53.060;18.726;2023-01-31T08:05:08;45.10;;;21.50;;
51146;SDS011;37207;53.060;18.726;2023-01-31T08:07:36;37.10;;;13.40;;
51146;SDS011;37207;53.060;18.726;2023-01-31T08:10:03;30.20;;;11.80;;
51146;SDS011;37207;53.060;18.726;2023-01-31T08:12:30;33.50;;;13.30;;
51146;SDS011;37207;53.060;18.726;2023-01-31T08:14:56;46.60;;;18.40;;
51146;SDS011;37207;53.060;18.726;2023-01-31T08:17:23;30.50;;;9.20;;
51146;SDS011;37207;53.060;18.726;2023-01-31T08:19:49;26.40;;;7.70;;
51146;SDS011;37207;53.060;18.726;2023-01-31T08:22:16;25.30;;;8.70;;
51146;SDS011;37207;53.060;18.726;2023-01-31T08:24:42;20.40;;;8.20;;
51146;SDS011;37207;53.060;18.726;2023-01-31T08:27:09;25.20;;;12.30;;
51146;SDS011;37207;53.060;18.726;2023-01-31T08:29:35;26.80;;;10.10;;
51146;SDS011;37207;53.060;18.726;2023-01-31T08:32:02;20.20;;;7.50;;
51146;SDS011;37207;53.060;18.726;2023-01-31T08:34:28;21.60;;;9.50;;
51146;SDS011;37207;53.060;18.726;2023-01-31T08:36:55;28.20;;;10.10;;
51146;SDS011;37207;53.060;18.726;2023-01-31T08:39:21;21.60;;;9.70;;
51146;SDS011;37207;53.060;18.726;2023-01-31T08:41:48;22.80;;;8.90;;
51146;SDS011;37207;53.060;18.726;2023-01-31T08:44:15;25.60;;;8.10;;
51146;SDS011;37207;53.060;18.726;2023-01-31T08:46:41;18.20;;;8.10;;
51146;SDS011;37207;53.060;18.726;2023-01-31T08:49:08;20.90;;;8.20;;
51146;SDS011;37207;53.060;18.726;2023-01-31T08:51:36;15.50;;;5.50;;
51146;SDS011;37207;53.060;18.726;2023-01-31T08:54:03;20.50;;;9.60;;
51146;SDS011;37207;53.060;18.726;2023-01-31T08:56:29;16.80;;;6.50;;
51146;SDS011;37207;53.060;18.726;2023-01-31T08:58:56;13.50;;;6.00;;
51146;SDS011;37207;53.060;18.726;2023-01-31T09:01:23;14.80;;;5.50;;
51146;SDS011;37207;53.060;18.726;2023-01-31T09:03:50;21.10;;;8.30;;
51146;SDS011;37207;53.060;18.726;2023-01-31T09:06:22;32.50;;;10.20;;
51146;SDS011;37207;53.060;18.726;2023-01-31T09:08:50;17.50;;;4.10;;
51146;SDS011;37207;53.060;18.726;2023-01-31T09:11:17;16.10;;;7.70;;
51146;SDS011;37207;53.060;18.726;2023-01-31T09:13:45;18.90;;;7.40;;
51146;SDS011;37207;53.060;18.726;2023-01-31T09:16:14;15.40;;;8.10;;
51146;SDS011;37207;53.060;18.726;2023-01-31T09:18:41;15.40;;;6.50;;
51146;SDS011;37207;53.060;18.726;2023-01-31T09:21:09;17.50;;;8.50;;
51146;SDS011;37207;53.060;18.726;2023-01-31T09:23:38;16.30;;;5.80;;
51146;SDS011;37207;53.060;18.726;2023-01-31T09:26:05;19.20;;;8.20;;
51146;SDS011;37207;53.060;18.726;2023-01-31T09:28:32;13.80;;;4.90;;
51146;SDS011;37207;53.060;18.726;2023-01-31T09:31:03;15.10;;;5.10;;
51146;SDS011;37207;53.060;18.726;2023-01-31T09:33:32;16.20;;;5.90;;
51146;SDS011;37207;53.060;18.726;2023-01-31T09:36:06;13.70;;;4.30;;
51146;SDS011;37207;53.060;18.726;2023-01-31T09:38:35;10.00;;;4.10;;
51146;SDS011;37207;53.060;18.726;2023-01-31T09:41:04;12.30;;;4.40;;
51146;SDS011;37207;53.060;18.726;2023-01-31T09:43:39;15.80;;;5.00;;
51146;SDS011;37207;53.060;18.726;2023-01-31T09:46:10;12.90;;;4.90;;
51146;SDS011;37207;53.060;18.726;2023-01-31T09:48:43;9.60;;;4.80;;
51146;SDS011;37207;53.060;18.726;2023-01-31T09:51:14;11.00;;;4.20;;
51146;SDS011;37207;53.060;18.726;2023-01-31T09:53:42;19.30;;;8.30;;
51146;SDS011;37207;53.060;18.726;2023-01-31T09:56:14;9.80;;;5.10;;
51146;SDS011;37207;53.060;18.726;2023-01-31T09:59:03;13.10;;;5.20;;
51146;SDS011;37207;53.060;18.726;2023-01-31T10:09:41;16.90;;;6.50;;
51146;SDS011;37207;53.060;18.726;2023-01-31T10:12:16;14.00;;;6.10;;
51146;SDS011;37207;53.060;18.726;2023-01-31T10:14:48;13.40;;;6.00;;
51146;SDS011;37207;53.060;18.726;2023-01-31T10:17:27;13.10;;;6.50;;
51146;SDS011;37207;53.060;18.726;2023-01-31T10:23:00;12.80;;;6.10;;
51146;SDS011;37207;53.060;18.726;2023-01-31T10:25:35;13.50;;;4.80;;
51146;SDS011;37207;53.060;18.726;2023-01-31T10:28:13;12.40;;;5.10;;
51146;SDS011;37207;53.060;18.726;2023-01-31T10:30:46;13.40;;;5.10;;
51146;SDS011;37207;53.060;18.726;2023-01-31T10:36:27;14.10;;;4.80;;
51146;SDS011;37207;53.060;18.726;2023-01-31T10:47:18;16.60;;;5.50;;
51146;SDS011;37207;53.060;18.726;2023-01-31T10:49:46;11.90;;;5.30;;
51146;SDS011;37207;53.060;18.726;2023-01-31T10:57:38;15.70;;;6.60;;
51146;SDS011;37207;53.060;18.726;2023-01-31T11:00:05;10.30;;;5.10;;
51146;SDS011;37207;53.060;18.726;2023-01-31T11:02:38;13.20;;;5.90;;
51146;SDS011;37207;53.060;18.726;2023-01-31T11:05:04;11.90;;;5.10;;
51146;SDS011;37207;53.060;18.726;2023-01-31T11:07:31;13.50;;;5.30;;
51146;SDS011;37207;53.060;18.726;2023-01-31T11:09:59;12.10;;;6.20;;
51146;SDS011;37207;53.060;18.726;2023-01-31T11:12:51;10.00;;;5.80;;
51146;SDS011;37207;53.060;18.726;2023-01-31T11:15:22;25.10;;;5.50;;
51146;SDS011;37207;53.060;18.726;2023-01-31T11:17:51;16.00;;;5.00;;
51146;SDS011;37207;53.060;18.726;2023-01-31T11:20:32;10.70;;;4.50;;
51146;SDS011;37207;53.060;18.726;2023-01-31T11:23:03;30.70;;;9.40;;
51146;SDS011;37207;53.060;18.726;2023-01-31T11:25:32;38.80;;;8.90;;
51146;SDS011;37207;53.060;18.726;2023-01-31T11:28:00;14.60;;;9.20;;
51146;SDS011;37207;53.060;18.726;2023-01-31T11:30:46;25.90;;;10.40;;
51146;SDS011;37207;53.060;18.726;2023-01-31T11:36:11;15.20;;;6.70;;
51146;SDS011;37207;53.060;18.726;2023-01-31T11:38:48;12.80;;;5.70;;
51146;SDS011;37207;53.060;18.726;2023-01-31T11:44:35;9.80;;;4.80;;
51146;SDS011;37207;53.060;18.726;2023-01-31T11:49:35;12.50;;;5.30;;
51146;SDS011;37207;53.060;18.726;2023-01-31T11:52:48;9.10;;;4.00;;
51146;SDS011;37207;53.060;18.726;2023-01-31T11:55:02;13.90;;;9.70;;
51146;SDS011;37207;53.060;18.726;2023-01-31T11:57:34;20.60;;;10.70;;
51146;SDS011;37207;53.060;18.726;2023-01-31T12:00:06;31.50;;;12.40;;
51146;SDS011;37207;53.060;18.726;2023-01-31T12:02:52;16.60;;;7.80;;
51146;SDS011;37207;53.060;18.726;2023-01-31T12:05:36;15.90;;;5.90;;
51146;SDS011;37207;53.060;18.726;2023-01-31T12:08:25;10.50;;;6.80;;
51146;SDS011;37207;53.060;18.726;2023-01-31T12:13:59;14.50;;;5.70;;
51146;SDS011;37207;53.060;18.726;2023-01-31T12:16:31;14.00;;;8.20;;
51146;SDS011;37207;53.060;18.726;2023-01-31T12:19:07;14.40;;;7.30;;
51146;SDS011;37207;53.060;18.726;2023-01-31T12:22:09;17.60;;;7.50;;
51146;SDS011;37207;53.060;18.726;2023-01-31T12:35:56;12.20;;;6.20;;
51146;SDS011;37207;53.060;18.726;2023-01-31T12:41:30;15.80;;;8.60;;
51146;SDS011;37207;53.060;18.726;2023-01-31T12:55:28;45.20;;;22.40;;
51146;SDS011;37207;53.060;18.726;2023-01-31T13:01:06;158.10;;;73.40;;
51146;SDS011;37207;53.060;18.726;2023-01-31T13:06:16;111.30;;;58.10;;
51146;SDS011;37207;53.060;18.726;2023-01-31T13:08:51;89.70;;;46.20;;
51146;SDS011;37207;53.060;18.726;2023-01-31T13:11:28;54.90;;;35.50;;
51146;SDS011;37207;53.060;18.726;2023-01-31T13:14:03;23.10;;;17.10;;
51146;SDS011;37207;53.060;18.726;2023-01-31T13:16:39;16.30;;;8.60;;
51146;SDS011;37207;53.060;18.726;2023-01-31T13:19:13;59.10;;;34.00;;
51146;SDS011;37207;53.060;18.726;2023-01-31T13:21:49;55.70;;;33.10;;
51146;SDS011;37207;53.060;18.726;2023-01-31T13:24:21;31.70;;;18.10;;
51146;SDS011;37207;53.060;18.726;2023-01-31T13:26:54;37.30;;;18.80;;
51146;SDS011;37207;53.060;18.726;2023-01-31T13:29:28;59.60;;;22.10;;
51146;SDS011;37207;53.060;18.726;2023-01-31T13:34:38;83.00;;;35.40;;
51146;SDS011;37207;53.060;18.726;2023-01-31T13:37:11;52.20;;;25.20;;
51146;SDS011;37207;53.060;18.726;2023-01-31T13:39:40;24.40;;;15.30;;
51146;SDS011;37207;53.060;18.726;2023-01-31T13:42:13;23.30;;;14.30;;
51146;SDS011;37207;53.060;18.726;2023-01-31T13:44:41;30.70;;;12.20;;
51146;SDS011;37207;53.060;18.726;2023-01-31T13:47:23;34.90;;;8.40;;
51146;SDS011;37207;53.060;18.726;2023-01-31T13:52:28;39.10;;;20.30;;
51146;SDS011;37207;53.060;18.726;2023-01-31T13:55:15;28.10;;;17.80;;
51146;SDS011;37207;53.060;18.726;2023-01-31T13:57:55;34.20;;;18.10;;
51146;SDS011;37207;53.060;18.726;2023-01-31T14:03:04;50.80;;;25.70;;
51146;SDS011;37207;53.060;18.726;2023-01-31T14:10:59;45.50;;;23.80;;
51146;SDS011;37207;53.060;18.726;2023-01-31T14:32:35;37.70;;;18.50;;
51146;SDS011;37207;53.060;18.726;2023-01-31T14:37:48;58.50;;;23.30;;
51146;SDS011;37207;53.060;18.726;2023-01-31T14:43:19;44.90;;;18.90;;
51146;SDS011;37207;53.060;18.726;2023-01-31T14:54:40;40.50;;;15.70;;
51146;SDS011;37207;53.060;18.726;2023-01-31T14:57:27;68.70;;;18.40;;
51146;SDS011;37207;53.060;18.726;2023-01-31T15:00:05;101.90;;;69.40;;
51146;SDS011;37207;53.060;18.726;2023-01-31T15:13:33;76.40;;;21.10;;
51146;SDS011;37207;53.060;18.726;2023-01-31T15:16:01;79.90;;;24.00;;
51146;SDS011;37207;53.060;18.726;2023-01-31T15:18:30;36.40;;;11.10;;
51146;SDS011;37207;53.060;18.726;2023-01-31T15:20:58;74.70;;;24.10;;
51146;SDS011;37207;53.060;18.726;2023-01-31T15:23:30;105.60;;;45.10;;
51146;SDS011;37207;53.060;18.726;2023-01-31T15:25:59;102.20;;;30.50;;
51146;SDS011;37207;53.060;18.726;2023-01-31T15:28:29;115.20;;;34.50;;
51146;SDS011;37207;53.060;18.726;2023-01-31T15:31:05;192.90;;;69.40;;
51146;SDS011;37207;53.060;18.726;2023-01-31T15:33:41;97.00;;;27.40;;
51146;SDS011;37207;53.060;18.726;2023-01-31T15:38:59;96.30;;;35.10;;
51146;SDS011;37207;53.060;18.726;2023-01-31T15:44:09;75.70;;;34.80;;
51146;SDS011;37207;53.060;18.726;2023-01-31T15:46:36;63.30;;;17.60;;
51146;SDS011;37207;53.060;18.726;2023-01-31T15:49:08;37.10;;;12.80;;
51146;SDS011;37207;53.060;18.726;2023-01-31T15:54:33;181.60;;;70.90;;
51146;SDS011;37207;53.060;18.726;2023-01-31T15:57:00;134.20;;;59.70;;
51146;SDS011;37207;53.060;18.726;2023-01-31T15:59:28;135.00;;;39.80;;
51146;SDS011;37207;53.060;18.726;2023-01-31T16:02:00;155.90;;;79.80;;
51146;SDS011;37207;53.060;18.726;2023-01-31T16:04:29;110.50;;;62.40;;
51146;SDS011;37207;53.060;18.726;2023-01-31T16:06:56;62.50;;;31.50;;
51146;SDS011;37207;53.060;18.726;2023-01-31T16:09:30;44.70;;;14.40;;
51146;SDS011;37207;53.060;18.726;2023-01-31T16:11:59;34.30;;;11.30;;
51146;SDS011;37207;53.060;18.726;2023-01-31T16:14:27;31.30;;;10.90;;
51146;SDS011;37207;53.060;18.726;2023-01-31T16:16:55;37.40;;;22.40;;
51146;SDS011;37207;53.060;18.726;2023-01-31T16:19:27;24.90;;;10.00;;
51146;SDS011;37207;53.060;18.726;2023-01-31T16:21:57;34.10;;;17.30;;
51146;SDS011;37207;53.060;18.726;2023-01-31T16:24:24;93.40;;;45.90;;
51146;SDS011;37207;53.060;18.726;2023-01-31T16:29:40;53.60;;;29.10;;
51146;SDS011;37207;53.060;18.726;2023-01-31T16:32:24;38.30;;;20.50;;
51146;SDS011;37207;53.060;18.726;2023-01-31T16:35:06;70.20;;;24.40;;
51146;SDS011;37207;53.060;18.726;2023-01-31T16:37:44;33.70;;;8.90;;
51146;SDS011;37207;53.060;18.726;2023-01-31T16:40:21;51.90;;;12.30;;
51146;SDS011;37207;53.060;18.726;2023-01-31T16:43:06;22.30;;;7.00;;
51146;SDS011;37207;53.060;18.726;2023-01-31T16:45:33;37.20;;;9.10;;
51146;SDS011;37207;53.060;18.726;2023-01-31T16:50:52;135.70;;;30.10;;
51146;SDS011;37207;53.060;18.726;2023-01-31T16:58:50;46.00;;;17.50;;
51146;SDS011;37207;53.060;18.726;2023-01-31T17:01:22;32.20;;;8.00;;
51146;SDS011;37207;53.060;18.726;2023-01-31T17:06:34;9.00;;;6.20;;
51146;SDS011;37207;53.060;18.726;2023-01-31T17:09:02;15.90;;;12.50;;
51146;SDS011;37207;53.060;18.726;2023-01-31T17:11:29;18.40;;;13.80;;
51146;SDS011;37207;53.060;18.726;2023-01-31T17:13:56;19.30;;;12.10;;
51146;SDS011;37207;53.060;18.726;2023-01-31T17:16:23;27.20;;;15.50;;
51146;SDS011;37207;53.060;18.726;2023-01-31T17:18:51;18.50;;;8.40;;
51146;SDS011;37207;53.060;18.726;2023-01-31T17:21:19;19.90;;;8.70;;
51146;SDS011;37207;53.060;18.726;2023-01-31T17:23:47;14.70;;;9.70;;
51146;SDS011;37207;53.060;18.726;2023-01-31T17:26:16;18.40;;;9.60;;
51146;SDS011;37207;53.060;18.726;2023-01-31T17:28:44;21.60;;;8.70;;
51146;SDS011;37207;53.060;18.726;2023-01-31T17:31:21;25.10;;;17.20;;
51146;SDS011;37207;53.060;18.726;2023-01-31T17:33:50;25.80;;;18.10;;
51146;SDS011;37207;53.060;18.726;2023-01-31T17:36:17;12.00;;;8.80;;
51146;SDS011;37207;53.060;18.726;2023-01-31T17:38:44;22.40;;;12.10;;
51146;SDS011;37207;53.060;18.726;2023-01-31T17:41:11;18.70;;;10.80;;
51146;SDS011;37207;53.060;18.726;2023-01-31T17:43:40;22.10;;;13.20;;
51146;SDS011;37207;53.060;18.726;2023-01-31T17:46:08;12.10;;;10.30;;
51146;SDS011;37207;53.060;18.726;2023-01-31T17:48:40;21.10;;;12.80;;
51146;SDS011;37207;53.060;18.726;2023-01-31T17:51:07;39.70;;;25.30;;
51146;SDS011;37207;53.060;18.726;2023-01-31T17:53:34;19.90;;;10.70;;
51146;SDS011;37207;53.060;18.726;2023-01-31T17:56:01;11.70;;;10.30;;
51146;SDS011;37207;53.060;18.726;2023-01-31T17:58:28;14.80;;;9.70;;
51146;SDS011;37207;53.060;18.726;2023-01-31T18:00:54;14.20;;;9.60;;